sensor_id;sensor_type;location;lat;lon;timestamp;P1;durP1;ratioP1;P2;durP2;ratioP2
67665;SDS011;54448;51.472;-2.574;2023-09-12T00:00:07;8.93;;;2.50;;
67665;SDS011;54448;51.472;-2.574;2023-09-12T00:02:32;6.88;;;2.47;;
67665;SDS011;54448;51.472;-2.574;2023-09-12T00:04:58;5.30;;;2.10;;
67665;SDS011;54448;51.472;-2.574;2023-09-12T00:07:23;5.75;;;2.17;;
67665;SDS011;54448;51.472;-2.574;2023-09-12T00:09:49;8.73;;;2.38;;
67665;SDS011;54448;51.472;-2.574;2023-09-12T00:12:14;8.98;;;2.35;;
67665;SDS011;54448;51.472;-2.574;2023-09-12T00:14:40;5.30;;;2.20;;
67665;SDS011;54448;51.472;-2.574;2023-09-12T00:17:06;9.65;;;2.60;;
67665;SDS011;54448;51.472;-2.574;2023-09-12T00:19:31;10.45;;;3.08;;
67665;SDS011;54448;51.472;-2.574;2023-09-12T00:21:57;8.57;;;2.55;;
67665;SDS011;54448;51.472;-2.574;2023-09-12T00:24:22;6.53;;;2.67;;
67665;SDS011;54448;51.472;-2.574;2023-09-12T00:26:48;9.38;;;2.97;;
67665;SDS011;54448;51.472;-2.574;2023-09-12T00:29:13;9.05;;;2.42;;
67665;SDS011;54448;51.472;-2.574;2023-09-12T00:31:38;7.75;;;2.75;;
67665;SDS011;54448;51.472;-2.574;2023-09-12T00:34:04;10.35;;;2.72;;
67665;SDS011;54448;51.472;-2.574;2023-09-12T00:36:29;9.38;;;2.50;;
67665;SDS011;54448;51.472;-2.574;2023-09-12T00:38:55;7.70;;;2.90;;
67665;SDS011;54448;51.472;-2.574;2023-09-12T00:41:20;11.05;;;2.90;;
67665;SDS011;54448;51.472;-2.574;2023-09-12T00:43:46;7.72;;;2.60;;
67665;SDS011;54448;51.472;-2.574;2023-09-12T00:46:12;11.52;;;2.90;;
67665;SDS011;54448;51.472;-2.574;2023-09-12T00:48:40;7.63;;;2.67;;
67665;SDS011;54448;51.472;-2.574;2023-09-12T00:51:05;8.70;;;3.17;;
67665;SDS011;54448;51.472;-2.574;2023-09-12T00:53:31;14.35;;;3.10;;
67665;SDS011;54448;51.472;-2.574;2023-09-12T00:55:57;10.82;;;2.83;;
67665;SDS011;54448;51.472;-2.574;2023-09-12T00:58:24;9.45;;;2.92;;
67665;SDS011;54448;51.472;-2.574;2023-09-12T01:00:50;8.20;;;2.60;;
67665;SDS011;54448;51.472;-2.574;2023-09-12T01:03:15;6.53;;;2.67;;
67665;SDS011;54448;51.472;-2.574;2023-09-12T01:05:41;7.90;;;2.70;;
67665;SDS011;54448;51.472;-2.574;2023-09-12T01:08:08;8.95;;;3.15;;
67665;SDS011;54448;51.472;-2.574;2023-09-12T01:10:33;10.98;;;3.00;;
67665;SDS011;54448;51.472;-2.574;2023-09-12T01:12:58;8.50;;;2.72;;
67665;SDS011;54448;51.472;-2.574;2023-09-12T01:15:24;8.82;;;2.67;;
67665;SDS011;54448;51.472;-2.574;2023-09-12T01:17:49;5.95;;;2.38;;
67665;SDS011;54448;51.472;-2.574;2023-09-12T01:20:16;7.47;;;2.67;;
67665;SDS011;54448;51.472;-2.574;2023-09-12T01:25:40;12.00;;;2.83;;
67665;SDS011;54448;51.472;-2.574;2023-09-12T01:28:10;7.28;;;2.25;;
67665;SDS011;54448;51.472;-2.574;2023-09-12T01:30:39;6.95;;;2.38;;
67665;SDS011;54448;51.472;-2.574;2023-09-12T01:33:05;6.50;;;2.50;;
67665;SDS011;54448;51.472;-2.574;2023-09-12T01:35:31;10.48;;;2.60;;
67665;SDS011;54448;51.472;-2.574;2023-09-12T01:37:56;8.45;;;2.42;;
67665;SDS011;54448;51.472;-2.574;2023-09-12T01:40:25;6.53;;;2.25;;
67665;SDS011;54448;51.472;-2.574;2023-09-12T01:42:56;6.57;;;2.47;;
67665;SDS011;54448;51.472;-2.574;2023-09-12T01:45:23;6.53;;;2.40;;
67665;SDS011;54448;51.472;-2.574;2023-09-12T01:47:49;8.27;;;2.78;;
67665;SDS011;54448;51.472;-2.574;2023-09-12T01:50:17;9.25;;;2.85;;
67665;SDS011;54448;51.472;-2.574;2023-09-12T01:55:13;9.65;;;2.60;;
67665;SDS011;54448;51.472;-2.574;2023-09-12T01:57:39;6.80;;;2.30;;
67665;SDS011;54448;51.472;-2.574;2023-09-12T02:00:05;12.70;;;2.33;;
67665;SDS011;54448;51.472;-2.574;2023-09-12T02:02:31;5.32;;;1.85;;
67665;SDS011;54448;51.472;-2.574;2023-09-12T02:07:43;5.75;;;2.40;;
67665;SDS011;54448;51.472;-2.574;2023-09-12T02:10:09;5.30;;;2.17;;
67665;SDS011;54448;51.472;-2.574;2023-09-12T02:12:35;8.35;;;2.53;;
67665;SDS011;54448;51.472;-2.574;2023-09-12T02:15:00;8.13;;;2.28;;
67665;SDS011;54448;51.472;-2.574;2023-09-12T02:17:26;7.25;;;2.00;;
67665;SDS011;54448;51.472;-2.574;2023-09-12T02:19:51;7.47;;;2.45;;
67665;SDS011;54448;51.472;-2.574;2023-09-12T02:22:17;6.93;;;2.20;;
67665;SDS011;54448;51.472;-2.574;2023-09-12T02:24:42;4.50;;;1.90;;
67665;SDS011;54448;51.472;-2.574;2023-09-12T02:27:08;7.82;;;1.70;;
67665;SDS011;54448;51.472;-2.574;2023-09-12T02:29:34;7.20;;;1.73;;
67665;SDS011;54448;51.472;-2.574;2023-09-12T02:31:59;4.18;;;1.88;;
67665;SDS011;54448;51.472;-2.574;2023-09-12T02:34:25;9.05;;;1.90;;
67665;SDS011;54448;51.472;-2.574;2023-09-12T02:36:50;9.57;;;2.45;;
67665;SDS011;54448;51.472;-2.574;2023-09-12T02:39:16;10.40;;;2.53;;
67665;SDS011;54448;51.472;-2.574;2023-09-12T02:41:41;13.05;;;3.38;;
67665;SDS011;54448;51.472;-2.574;2023-09-12T02:44:07;11.75;;;2.90;;
67665;SDS011;54448;51.472;-2.574;2023-09-12T02:46:32;10.82;;;2.70;;
67665;SDS011;54448;51.472;-2.574;2023-09-12T02:48:58;8.40;;;2.33;;
67665;SDS011;54448;51.472;-2.574;2023-09-12T02:51:25;7.10;;;2.63;;
67665;SDS011;54448;51.472;-2.574;2023-09-12T02:53:50;10.98;;;2.97;;
67665;SDS011;54448;51.472;-2.574;2023-09-12T02:56:16;7.57;;;2.50;;
67665;SDS011;54448;51.472;-2.574;2023-09-12T02:58:41;9.82;;;2.58;;
67665;SDS011;54448;51.472;-2.574;2023-09-12T03:01:07;9.43;;;2.75;;
67665;SDS011;54448;51.472;-2.574;2023-09-12T03:03:32;7.55;;;2.50;;
67665;SDS011;54448;51.472;-2.574;2023-09-12T03:06:01;9.50;;;2.90;;
67665;SDS011;54448;51.472;-2.574;2023-09-12T03:08:30;9.10;;;2.47;;
67665;SDS011;54448;51.472;-2.574;2023-09-12T03:10:55;9.30;;;3.10;;
67665;SDS011;54448;51.472;-2.574;2023-09-12T03:13:23;7.75;;;2.83;;
67665;SDS011;54448;51.472;-2.574;2023-09-12T03:15:51;11.75;;;3.00;;
67665;SDS011;54448;51.472;-2.574;2023-09-12T03:18:17;10.40;;;2.45;;
67665;SDS011;54448;51.472;-2.574;2023-09-12T03:20:42;7.03;;;2.70;;
67665;SDS011;54448;51.472;-2.574;2023-09-12T03:23:08;8.40;;;2.78;;
67665;SDS011;54448;51.472;-2.574;2023-09-12T03:25:37;6.45;;;2.85;;
67665;SDS011;54448;51.472;-2.574;2023-09-12T03:28:03;7.88;;;2.45;;
67665;SDS011;54448;51.472;-2.574;2023-09-12T03:30:30;8.57;;;2.95;;
67665;SDS011;54448;51.472;-2.574;2023-09-12T03:32:58;9.80;;;2.88;;
67665;SDS011;54448;51.472;-2.574;2023-09-12T03:35:23;7.47;;;2.85;;
67665;SDS011;54448;51.472;-2.574;2023-09-12T03:37:48;8.93;;;2.33;;
67665;SDS011;54448;51.472;-2.574;2023-09-12T03:40:14;5.15;;;2.55;;
67665;SDS011;54448;51.472;-2.574;2023-09-12T03:42:39;8.93;;;2.72;;
67665;SDS011;54448;51.472;-2.574;2023-09-12T03:45:05;7.55;;;2.45;;
67665;SDS011;54448;51.472;-2.574;2023-09-12T03:47:31;5.10;;;2.22;;
67665;SDS011;54448;51.472;-2.574;2023-09-12T03:49:56;7.97;;;2.50;;
67665;SDS011;54448;51.472;-2.574;2023-09-12T03:52:21;8.93;;;2.92;;
67665;SDS011;54448;51.472;-2.574;2023-09-12T03:54:47;11.60;;;2.85;;
67665;SDS011;54448;51.472;-2.574;2023-09-12T03:57:12;11.25;;;2.65;;
67665;SDS011;54448;51.472;-2.574;2023-09-12T03:59:38;13.13;;;2.65;;
67665;SDS011;54448;51.472;-2.574;2023-09-12T04:02:03;15.57;;;3.47;;
67665;SDS011;54448;51.472;-2.574;2023-09-12T04:04:29;7.82;;;2.92;;
67665;SDS011;54448;51.472;-2.574;2023-09-12T04:06:54;9.57;;;3.42;;
67665;SDS011;54448;51.472;-2.574;2023-09-12T04:09:20;10.27;;;3.20;;
67665;SDS011;54448;51.472;-2.574;2023-09-12T04:11:46;10.70;;;3.15;;
67665;SDS011;54448;51.472;-2.574;2023-09-12T04:14:11;7.80;;;3.35;;
67665;SDS011;54448;51.472;-2.574;2023-09-12T04:16:37;9.45;;;3.22;;
67665;SDS011;54448;51.472;-2.574;2023-09-12T04:19:03;12.55;;;3.78;;
67665;SDS011;54448;51.472;-2.574;2023-09-12T04:21:28;5.85;;;3.72;;
67665;SDS011;54448;51.472;-2.574;2023-09-12T04:23:54;10.10;;;3.67;;
67665;SDS011;54448;51.472;-2.574;2023-09-12T04:26:19;7.93;;;3.20;;
67665;SDS011;54448;51.472;-2.574;2023-09-12T04:28:46;6.63;;;3.35;;
67665;SDS011;54448;51.472;-2.574;2023-09-12T04:31:12;11.13;;;3.65;;
67665;SDS011;54448;51.472;-2.574;2023-09-12T04:33:37;12.43;;;4.07;;
67665;SDS011;54448;51.472;-2.574;2023-09-12T04:36:03;8.70;;;3.35;;
67665;SDS011;54448;51.472;-2.574;2023-09-12T04:38:28;8.55;;;3.08;;
67665;SDS011;54448;51.472;-2.574;2023-09-12T04:40:55;11.27;;;3.30;;
67665;SDS011;54448;51.472;-2.574;2023-09-12T04:43:21;6.57;;;3.65;;
67665;SDS011;54448;51.472;-2.574;2023-09-12T04:45:46;7.88;;;3.67;;
67665;SDS011;54448;51.472;-2.574;2023-09-12T04:48:11;10.95;;;4.00;;
67665;SDS011;54448;51.472;-2.574;2023-09-12T04:50:43;10.13;;;4.18;;
67665;SDS011;54448;51.472;-2.574;2023-09-12T04:53:08;8.32;;;3.40;;
67665;SDS011;54448;51.472;-2.574;2023-09-12T04:55:37;11.25;;;3.65;;
67665;SDS011;54448;51.472;-2.574;2023-09-12T04:58:04;12.27;;;3.75;;
67665;SDS011;54448;51.472;-2.574;2023-09-12T05:00:30;6.15;;;3.47;;
67665;SDS011;54448;51.472;-2.574;2023-09-12T05:02:56;14.63;;;3.25;;
67665;SDS011;54448;51.472;-2.574;2023-09-12T05:05:21;10.00;;;3.45;;
67665;SDS011;54448;51.472;-2.574;2023-09-12T05:07:47;11.23;;;2.92;;
67665;SDS011;54448;51.472;-2.574;2023-09-12T05:10:12;11.55;;;3.25;;
67665;SDS011;54448;51.472;-2.574;2023-09-12T05:12:38;9.80;;;3.22;;
67665;SDS011;54448;51.472;-2.574;2023-09-12T05:15:04;9.52;;;3.03;;
67665;SDS011;54448;51.472;-2.574;2023-09-12T05:17:29;10.63;;;2.95;;
67665;SDS011;54448;51.472;-2.574;2023-09-12T05:19:55;9.27;;;3.50;;
67665;SDS011;54448;51.472;-2.574;2023-09-12T05:22:20;7.45;;;2.70;;
67665;SDS011;54448;51.472;-2.574;2023-09-12T05:24:46;9.00;;;3.08;;
67665;SDS011;54448;51.472;-2.574;2023-09-12T05:27:11;7.82;;;2.85;;
67665;SDS011;54448;51.472;-2.574;2023-09-12T05:29:37;8.88;;;3.25;;
67665;SDS011;54448;51.472;-2.574;2023-09-12T05:32:02;10.15;;;3.25;;
67665;SDS011;54448;51.472;-2.574;2023-09-12T05:34:28;5.50;;;2.70;;
67665;SDS011;54448;51.472;-2.574;2023-09-12T05:36:54;6.85;;;2.80;;
67665;SDS011;54448;51.472;-2.574;2023-09-12T05:39:19;10.15;;;3.38;;
67665;SDS011;54448;51.472;-2.574;2023-09-12T05:41:45;11.18;;;3.08;;
67665;SDS011;54448;51.472;-2.574;2023-09-12T05:44:10;9.93;;;3.25;;
67665;SDS011;54448;51.472;-2.574;2023-09-12T05:46:38;8.18;;;3.03;;
67665;SDS011;54448;51.472;-2.574;2023-09-12T05:49:03;8.50;;;3.58;;
67665;SDS011;54448;51.472;-2.574;2023-09-12T05:51:29;10.05;;;3.33;;
67665;SDS011;54448;51.472;-2.574;2023-09-12T05:53:55;8.40;;;3.28;;
67665;SDS011;54448;51.472;-2.574;2023-09-12T05:56:20;11.32;;;3.67;;
67665;SDS011;54448;51.472;-2.574;2023-09-12T05:58:46;11.70;;;3.50;;
67665;SDS011;54448;51.472;-2.574;2023-09-12T06:01:11;6.45;;;3.30;;
67665;SDS011;54448;51.472;-2.574;2023-09-12T06:03:37;8.43;;;3.60;;
67665;SDS011;54448;51.472;-2.574;2023-09-12T06:06:03;9.80;;;3.42;;
67665;SDS011;54448;51.472;-2.574;2023-09-12T06:08:28;9.45;;;3.70;;
67665;SDS011;54448;51.472;-2.574;2023-09-12T06:10:54;8.20;;;3.78;;
67665;SDS011;54448;51.472;-2.574;2023-09-12T06:13:20;11.48;;;3.70;;
67665;SDS011;54448;51.472;-2.574;2023-09-12T06:15:45;8.32;;;4.05;;
67665;SDS011;54448;51.472;-2.574;2023-09-12T06:18:11;11.50;;;4.47;;
67665;SDS011;54448;51.472;-2.574;2023-09-12T06:20:36;9.10;;;4.22;;
67665;SDS011;54448;51.472;-2.574;2023-09-12T06:23:02;8.82;;;3.88;;
67665;SDS011;54448;51.472;-2.574;2023-09-12T06:25:28;13.55;;;4.72;;
67665;SDS011;54448;51.472;-2.574;2023-09-12T06:27:54;21.02;;;4.75;;
67665;SDS011;54448;51.472;-2.574;2023-09-12T06:30:20;12.88;;;4.50;;
67665;SDS011;54448;51.472;-2.574;2023-09-12T06:32:45;8.23;;;4.00;;
67665;SDS011;54448;51.472;-2.574;2023-09-12T06:35:10;11.38;;;4.72;;
67665;SDS011;54448;51.472;-2.574;2023-09-12T06:37:37;13.30;;;4.93;;
67665;SDS011;54448;51.472;-2.574;2023-09-12T06:40:04;11.80;;;4.03;;
67665;SDS011;54448;51.472;-2.574;2023-09-12T06:42:31;12.57;;;4.93;;
67665;SDS011;54448;51.472;-2.574;2023-09-12T06:47:36;14.85;;;4.25;;
67665;SDS011;54448;51.472;-2.574;2023-09-12T06:50:01;16.08;;;4.63;;
67665;SDS011;54448;51.472;-2.574;2023-09-12T06:52:35;15.43;;;4.05;;
67665;SDS011;54448;51.472;-2.574;2023-09-12T06:55:02;10.68;;;4.50;;
67665;SDS011;54448;51.472;-2.574;2023-09-12T06:57:27;10.20;;;3.95;;
67665;SDS011;54448;51.472;-2.574;2023-09-12T06:59:54;10.90;;;4.10;;
67665;SDS011;54448;51.472;-2.574;2023-09-12T07:02:19;13.50;;;4.30;;
67665;SDS011;54448;51.472;-2.574;2023-09-12T07:04:46;12.73;;;4.72;;
67665;SDS011;54448;51.472;-2.574;2023-09-12T07:07:12;19.92;;;7.30;;
67665;SDS011;54448;51.472;-2.574;2023-09-12T07:09:37;13.32;;;4.45;;
67665;SDS011;54448;51.472;-2.574;2023-09-12T07:12:03;14.93;;;5.53;;
67665;SDS011;54448;51.472;-2.574;2023-09-12T07:14:30;8.40;;;4.60;;
67665;SDS011;54448;51.472;-2.574;2023-09-12T07:16:56;14.20;;;5.30;;
67665;SDS011;54448;51.472;-2.574;2023-09-12T07:19:22;16.40;;;6.07;;
67665;SDS011;54448;51.472;-2.574;2023-09-12T07:21:47;19.33;;;5.43;;
67665;SDS011;54448;51.472;-2.574;2023-09-12T07:24:12;13.73;;;5.28;;
67665;SDS011;54448;51.472;-2.574;2023-09-12T07:26:38;12.10;;;4.53;;
67665;SDS011;54448;51.472;-2.574;2023-09-12T07:29:03;9.60;;;4.82;;
67665;SDS011;54448;51.472;-2.574;2023-09-12T07:31:30;14.82;;;5.25;;
67665;SDS011;54448;51.472;-2.574;2023-09-12T07:33:56;12.48;;;5.50;;
67665;SDS011;54448;51.472;-2.574;2023-09-12T07:36:21;11.63;;;5.03;;
67665;SDS011;54448;51.472;-2.574;2023-09-12T07:38:47;13.48;;;5.82;;
67665;SDS011;54448;51.472;-2.574;2023-09-12T07:41:14;13.82;;;5.75;;
67665;SDS011;54448;51.472;-2.574;2023-09-12T07:43:39;14.27;;;5.20;;
67665;SDS011;54448;51.472;-2.574;2023-09-12T07:46:05;12.73;;;5.93;;
67665;SDS011;54448;51.472;-2.574;2023-09-12T07:48:30;12.07;;;5.30;;
67665;SDS011;54448;51.472;-2.574;2023-09-12T07:50:56;11.73;;;6.00;;
67665;SDS011;54448;51.472;-2.574;2023-09-12T07:53:21;14.63;;;5.50;;
67665;SDS011;54448;51.472;-2.574;2023-09-12T07:55:47;10.75;;;5.03;;
67665;SDS011;54448;51.472;-2.574;2023-09-12T07:58:16;12.85;;;5.50;;
67665;SDS011;54448;51.472;-2.574;2023-09-12T08:00:46;14.77;;;4.70;;
67665;SDS011;54448;51.472;-2.574;2023-09-12T08:03:12;17.08;;;7.13;;
67665;SDS011;54448;51.472;-2.574;2023-09-12T08:05:38;11.63;;;4.88;;
67665;SDS011;54448;51.472;-2.574;2023-09-12T08:08:04;10.75;;;4.72;;
67665;SDS011;54448;51.472;-2.574;2023-09-12T08:10:29;18.20;;;5.20;;
67665;SDS011;54448;51.472;-2.574;2023-09-12T08:12:55;19.70;;;5.30;;
67665;SDS011;54448;51.472;-2.574;2023-09-12T08:15:20;13.32;;;5.38;;
67665;SDS011;54448;51.472;-2.574;2023-09-12T08:17:46;16.67;;;6.00;;
67665;SDS011;54448;51.472;-2.574;2023-09-12T08:20:16;18.88;;;5.47;;
67665;SDS011;54448;51.472;-2.574;2023-09-12T08:22:42;12.68;;;5.60;;
67665;SDS011;54448;51.472;-2.574;2023-09-12T08:25:07;17.00;;;5.18;;
67665;SDS011;54448;51.472;-2.574;2023-09-12T08:27:35;14.57;;;5.03;;
67665;SDS011;54448;51.472;-2.574;2023-09-12T08:30:00;9.60;;;4.63;;
67665;SDS011;54448;51.472;-2.574;2023-09-12T08:32:26;16.80;;;4.25;;
67665;SDS011;54448;51.472;-2.574;2023-09-12T08:34:51;14.07;;;4.25;;
67665;SDS011;54448;51.472;-2.574;2023-09-12T08:37:17;9.05;;;4.07;;
67665;SDS011;54448;51.472;-2.574;2023-09-12T08:39:43;10.88;;;3.53;;
67665;SDS011;54448;51.472;-2.574;2023-09-12T08:42:13;10.02;;;3.60;;
67665;SDS011;54448;51.472;-2.574;2023-09-12T08:44:44;7.05;;;3.33;;
67665;SDS011;54448;51.472;-2.574;2023-09-12T08:47:10;8.25;;;3.60;;
67665;SDS011;54448;51.472;-2.574;2023-09-12T08:49:36;7.97;;;3.45;;
67665;SDS011;54448;51.472;-2.574;2023-09-12T08:52:03;6.95;;;3.25;;
67665;SDS011;54448;51.472;-2.574;2023-09-12T08:54:31;10.57;;;3.60;;
67665;SDS011;54448;51.472;-2.574;2023-09-12T08:56:57;5.32;;;3.10;;
67665;SDS011;54448;51.472;-2.574;2023-09-12T08:59:23;8.20;;;3.33;;
67665;SDS011;54448;51.472;-2.574;2023-09-12T09:01:49;7.55;;;3.03;;
67665;SDS011;54448;51.472;-2.574;2023-09-12T09:04:17;8.23;;;3.13;;
67665;SDS011;54448;51.472;-2.574;2023-09-12T09:06:44;9.88;;;3.63;;
67665;SDS011;54448;51.472;-2.574;2023-09-12T09:09:10;6.95;;;3.13;;
67665;SDS011;54448;51.472;-2.574;2023-09-12T09:11:36;7.03;;;3.10;;
67665;SDS011;54448;51.472;-2.574;2023-09-12T09:14:02;6.47;;;3.10;;
67665;SDS011;54448;51.472;-2.574;2023-09-12T09:16:28;10.88;;;2.83;;
67665;SDS011;54448;51.472;-2.574;2023-09-12T09:21:27;6.45;;;3.00;;
67665;SDS011;54448;51.472;-2.574;2023-09-12T09:23:55;6.53;;;2.88;;
67665;SDS011;54448;51.472;-2.574;2023-09-12T09:26:21;8.05;;;3.25;;
67665;SDS011;54448;51.472;-2.574;2023-09-12T09:31:31;6.70;;;2.83;;
67665;SDS011;54448;51.472;-2.574;2023-09-12T09:33:58;7.72;;;2.97;;
67665;SDS011;54448;51.472;-2.574;2023-09-12T09:36:24;6.40;;;2.88;;
67665;SDS011;54448;51.472;-2.574;2023-09-12T09:38:50;7.95;;;3.40;;
67665;SDS011;54448;51.472;-2.574;2023-09-12T09:41:15;8.40;;;3.03;;
67665;SDS011;54448;51.472;-2.574;2023-09-12T09:43:51;6.85;;;1.77;;
67665;SDS011;54448;51.472;-2.574;2023-09-12T09:46:17;5.95;;;1.42;;
67665;SDS011;54448;51.472;-2.574;2023-09-12T09:48:50;6.13;;;1.60;;
67665;SDS011;54448;51.472;-2.574;2023-09-12T09:51:17;3.65;;;1.63;;
67665;SDS011;54448;51.472;-2.574;2023-09-12T09:53:43;4.32;;;1.27;;
67665;SDS011;54448;51.472;-2.574;2023-09-12T09:56:16;5.43;;;1.55;;
67665;SDS011;54448;51.472;-2.574;2023-09-12T09:58:45;2.45;;;1.30;;
67665;SDS011;54448;51.472;-2.574;2023-09-12T10:01:27;2.67;;;1.25;;
67665;SDS011;54448;51.472;-2.574;2023-09-12T10:03:55;5.95;;;1.42;;
67665;SDS011;54448;51.472;-2.574;2023-09-12T10:06:22;2.55;;;1.52;;
67665;SDS011;54448;51.472;-2.574;2023-09-12T10:08:52;3.83;;;1.80;;
67665;SDS011;54448;51.472;-2.574;2023-09-12T10:11:19;3.65;;;1.60;;
67665;SDS011;54448;51.472;-2.574;2023-09-12T10:13:55;5.45;;;3.40;;
67665;SDS011;54448;51.472;-2.574;2023-09-12T10:16:23;5.53;;;1.80;;
67665;SDS011;54448;51.472;-2.574;2023-09-12T10:19:03;5.13;;;2.13;;
67665;SDS011;54448;51.472;-2.574;2023-09-12T10:21:35;6.53;;;1.70;;
67665;SDS011;54448;51.472;-2.574;2023-09-12T10:24:02;2.10;;;0.93;;
67665;SDS011;54448;51.472;-2.574;2023-09-12T10:26:28;8.80;;;1.92;;
67665;SDS011;54448;51.472;-2.574;2023-09-12T10:28:56;2.40;;;1.00;;
67665;SDS011;54448;51.472;-2.574;2023-09-12T10:31:22;4.97;;;2.03;;
67665;SDS011;54448;51.472;-2.574;2023-09-12T10:33:49;6.25;;;1.70;;
67665;SDS011;54448;51.472;-2.574;2023-09-12T10:36:16;3.78;;;1.80;;
67665;SDS011;54448;51.472;-2.574;2023-09-12T10:38:43;3.30;;;1.20;;
67665;SDS011;54448;51.472;-2.574;2023-09-12T10:41:13;3.08;;;0.98;;
67665;SDS011;54448;51.472;-2.574;2023-09-12T10:43:40;6.43;;;1.20;;
67665;SDS011;54448;51.472;-2.574;2023-09-12T10:46:07;3.45;;;1.02;;
67665;SDS011;54448;51.472;-2.574;2023-09-12T10:48:36;4.07;;;1.40;;
67665;SDS011;54448;51.472;-2.574;2023-09-12T10:51:02;5.00;;;1.27;;
67665;SDS011;54448;51.472;-2.574;2023-09-12T10:53:30;3.88;;;1.35;;
67665;SDS011;54448;51.472;-2.574;2023-09-12T10:58:33;3.58;;;1.48;;
67665;SDS011;54448;51.472;-2.574;2023-09-12T11:01:41;3.58;;;1.20;;
67665;SDS011;54448;51.472;-2.574;2023-09-12T11:06:45;3.53;;;1.30;;
67665;SDS011;54448;51.472;-2.574;2023-09-12T11:11:39;2.90;;;1.10;;
67665;SDS011;54448;51.472;-2.574;2023-09-12T11:14:07;1.95;;;1.00;;
67665;SDS011;54448;51.472;-2.574;2023-09-12T11:16:33;3.83;;;1.27;;
67665;SDS011;54448;51.472;-2.574;2023-09-12T11:21:38;4.40;;;1.05;;
67665;SDS011;54448;51.472;-2.574;2023-09-12T11:24:03;4.30;;;1.15;;
67665;SDS011;54448;51.472;-2.574;2023-09-12T11:26:29;4.78;;;1.23;;
67665;SDS011;54448;51.472;-2.574;2023-09-12T11:28:54;3.83;;;1.13;;
67665;SDS011;54448;51.472;-2.574;2023-09-12T11:31:26;3.63;;;1.20;;
67665;SDS011;54448;51.472;-2.574;2023-09-12T11:33:52;3.55;;;1.40;;
67665;SDS011;54448;51.472;-2.574;2023-09-12T11:36:18;5.53;;;1.60;;
67665;SDS011;54448;51.472;-2.574;2023-09-12T11:38:44;2.58;;;1.00;;
67665;SDS011;54448;51.472;-2.574;2023-09-12T11:41:14;5.10;;;1.30;;
67665;SDS011;54448;51.472;-2.574;2023-09-12T11:43:40;5.75;;;1.58;;
67665;SDS011;54448;51.472;-2.574;2023-09-12T11:46:06;4.50;;;1.33;;
67665;SDS011;54448;51.472;-2.574;2023-09-12T11:48:32;4.13;;;0.90;;
67665;SDS011;54448;51.472;-2.574;2023-09-12T11:50:58;2.33;;;1.10;;
67665;SDS011;54448;51.472;-2.574;2023-09-12T11:53:24;3.33;;;1.10;;
67665;SDS011;54448;51.472;-2.574;2023-09-12T11:55:53;5.88;;;1.00;;
67665;SDS011;54448;51.472;-2.574;2023-09-12T11:58:20;15.98;;;1.70;;
67665;SDS011;54448;51.472;-2.574;2023-09-12T12:00:46;14.00;;;2.22;;
67665;SDS011;54448;51.472;-2.574;2023-09-12T12:03:16;6.05;;;1.42;;
67665;SDS011;54448;51.472;-2.574;2023-09-12T12:05:43;2.97;;;0.90;;
67665;SDS011;54448;51.472;-2.574;2023-09-12T12:08:08;7.22;;;1.40;;
67665;SDS011;54448;51.472;-2.574;2023-09-12T12:10:35;4.35;;;1.48;;
67665;SDS011;54448;51.472;-2.574;2023-09-12T12:13:03;6.32;;;1.40;;
67665;SDS011;54448;51.472;-2.574;2023-09-12T12:15:28;7.40;;;1.25;;
67665;SDS011;54448;51.472;-2.574;2023-09-12T12:17:54;4.78;;;1.02;;
67665;SDS011;54448;51.472;-2.574;2023-09-12T12:20:21;5.15;;;1.25;;
67665;SDS011;54448;51.472;-2.574;2023-09-12T12:22:47;8.52;;;1.25;;
67665;SDS011;54448;51.472;-2.574;2023-09-12T12:25:13;5.47;;;1.10;;
67665;SDS011;54448;51.472;-2.574;2023-09-12T12:27:41;7.07;;;1.13;;
67665;SDS011;54448;51.472;-2.574;2023-09-12T12:30:07;4.22;;;0.90;;
67665;SDS011;54448;51.472;-2.574;2023-09-12T12:32:35;4.28;;;1.10;;
67665;SDS011;54448;51.472;-2.574;2023-09-12T12:35:02;6.22;;;1.08;;
67665;SDS011;54448;51.472;-2.574;2023-09-12T12:37:29;3.83;;;0.90;;
67665;SDS011;54448;51.472;-2.574;2023-09-12T12:39:57;5.20;;;1.33;;
67665;SDS011;54448;51.472;-2.574;2023-09-12T12:42:22;5.32;;;1.10;;
67665;SDS011;54448;51.472;-2.574;2023-09-12T12:44:56;4.50;;;1.25;;
67665;SDS011;54448;51.472;-2.574;2023-09-12T12:47:21;4.70;;;1.10;;
67665;SDS011;54448;51.472;-2.574;2023-09-12T12:49:50;5.20;;;1.10;;
67665;SDS011;54448;51.472;-2.574;2023-09-12T12:52:16;5.50;;;1.00;;
67665;SDS011;54448;51.472;-2.574;2023-09-12T12:54:42;6.18;;;1.13;;
67665;SDS011;54448;51.472;-2.574;2023-09-12T12:57:09;2.63;;;1.00;;
67665;SDS011;54448;51.472;-2.574;2023-09-12T12:59:37;2.80;;;1.10;;
67665;SDS011;54448;51.472;-2.574;2023-09-12T13:02:03;8.25;;;1.40;;
67665;SDS011;54448;51.472;-2.574;2023-09-12T13:04:34;9.80;;;1.92;;
67665;SDS011;54448;51.472;-2.574;2023-09-12T13:07:01;8.57;;;1.90;;
67665;SDS011;54448;51.472;-2.574;2023-09-12T13:09:26;8.98;;;1.80;;
67665;SDS011;54448;51.472;-2.574;2023-09-12T13:11:53;11.00;;;2.55;;
67665;SDS011;54448;51.472;-2.574;2023-09-12T13:14:18;6.72;;;1.65;;
67665;SDS011;54448;51.472;-2.574;2023-09-12T13:16:44;12.38;;;2.35;;
67665;SDS011;54448;51.472;-2.574;2023-09-12T13:19:10;7.90;;;1.60;;
67665;SDS011;54448;51.472;-2.574;2023-09-12T13:21:38;3.50;;;1.25;;
67665;SDS011;54448;51.472;-2.574;2023-09-12T13:24:04;11.07;;;1.73;;
67665;SDS011;54448;51.472;-2.574;2023-09-12T13:26:29;6.25;;;1.48;;
67665;SDS011;54448;51.472;-2.574;2023-09-12T13:28:56;17.55;;;1.88;;
67665;SDS011;54448;51.472;-2.574;2023-09-12T13:31:22;7.78;;;1.45;;
67665;SDS011;54448;51.472;-2.574;2023-09-12T13:33:47;11.25;;;1.80;;
67665;SDS011;54448;51.472;-2.574;2023-09-12T13:36:12;6.38;;;1.42;;
67665;SDS011;54448;51.472;-2.574;2023-09-12T13:38:38;7.53;;;2.05;;
67665;SDS011;54448;51.472;-2.574;2023-09-12T13:41:03;11.20;;;1.38;;
67665;SDS011;54448;51.472;-2.574;2023-09-12T13:43:29;8.95;;;1.42;;
67665;SDS011;54448;51.472;-2.574;2023-09-12T13:45:55;6.93;;;1.52;;
67665;SDS011;54448;51.472;-2.574;2023-09-12T13:48:20;13.50;;;1.77;;
67665;SDS011;54448;51.472;-2.574;2023-09-12T13:50:46;10.40;;;2.00;;
67665;SDS011;54448;51.472;-2.574;2023-09-12T13:53:11;7.32;;;1.40;;
67665;SDS011;54448;51.472;-2.574;2023-09-12T13:55:37;7.57;;;1.52;;
67665;SDS011;54448;51.472;-2.574;2023-09-12T13:58:02;7.45;;;1.80;;
67665;SDS011;54448;51.472;-2.574;2023-09-12T14:00:29;4.90;;;1.35;;
67665;SDS011;54448;51.472;-2.574;2023-09-12T14:02:55;5.50;;;1.52;;
67665;SDS011;54448;51.472;-2.574;2023-09-12T14:05:20;4.82;;;1.50;;
67665;SDS011;54448;51.472;-2.574;2023-09-12T14:07:46;5.50;;;1.83;;
67665;SDS011;54448;51.472;-2.574;2023-09-12T14:10:12;7.45;;;1.70;;
67665;SDS011;54448;51.472;-2.574;2023-09-12T14:12:38;8.15;;;1.83;;
67665;SDS011;54448;51.472;-2.574;2023-09-12T14:15:04;9.50;;;2.17;;
67665;SDS011;54448;51.472;-2.574;2023-09-12T14:17:31;7.82;;;2.08;;
67665;SDS011;54448;51.472;-2.574;2023-09-12T14:19:57;10.35;;;2.15;;
67665;SDS011;54448;51.472;-2.574;2023-09-12T14:22:22;5.75;;;1.67;;
67665;SDS011;54448;51.472;-2.574;2023-09-12T14:24:48;11.63;;;2.40;;
67665;SDS011;54448;51.472;-2.574;2023-09-12T14:27:13;6.75;;;1.70;;
67665;SDS011;54448;51.472;-2.574;2023-09-12T14:29:39;7.03;;;1.50;;
67665;SDS011;54448;51.472;-2.574;2023-09-12T14:32:04;7.72;;;1.60;;
67665;SDS011;54448;51.472;-2.574;2023-09-12T14:34:30;10.93;;;1.60;;
67665;SDS011;54448;51.472;-2.574;2023-09-12T14:36:58;9.65;;;1.80;;
67665;SDS011;54448;51.472;-2.574;2023-09-12T14:39:24;7.15;;;1.70;;
67665;SDS011;54448;51.472;-2.574;2023-09-12T14:41:50;7.15;;;1.83;;
67665;SDS011;54448;51.472;-2.574;2023-09-12T14:44:26;7.00;;;1.70;;
67665;SDS011;54448;51.472;-2.574;2023-09-12T14:46:53;8.25;;;1.90;;
67665;SDS011;54448;51.472;-2.574;2023-09-12T14:49:18;11.27;;;2.10;;
67665;SDS011;54448;51.472;-2.574;2023-09-12T14:51:44;9.07;;;2.20;;